createdAt,value
2022-11-02T00:00:26.040Z,2.20
2022-11-02T00:01:25.833Z,2.20
2022-11-02T00:02:25.765Z,2.30
2022-11-02T00:03:25.752Z,1.60
2022-11-02T00:04:25.726Z,1.60
2022-11-02T00:05:25.704Z,1.80
2022-11-02T00:06:25.692Z,1.80
2022-11-02T00:07:25.689Z,1.80
2022-11-02T00:08:25.695Z,2.10
2022-11-02T00:09:25.657Z,2.10
2022-11-02T00:10:25.685Z,1.90
2022-11-02T00:11:25.632Z,1.70
2022-11-02T00:12:25.647Z,2.20
2022-11-02T00:13:25.612Z,1.60
2022-11-02T00:14:25.639Z,2.20
2022-11-02T00:15:25.590Z,1.80
2022-11-02T00:16:25.579Z,2.40
2022-11-02T00:17:25.567Z,1.80
2022-11-02T00:18:25.557Z,2.50
2022-11-02T00:19:25.565Z,2.10
2022-11-02T00:20:25.540Z,1.80
2022-11-02T00:21:25.548Z,2.10
2022-11-02T00:22:25.513Z,1.90
2022-11-02T00:23:25.501Z,2.10
2022-11-02T00:24:25.489Z,2.20
2022-11-02T00:25:25.484Z,1.90
2022-11-02T00:26:25.485Z,1.90
2022-11-02T00:27:25.475Z,2.30
2022-11-02T00:28:25.446Z,2.10
2022-11-02T00:29:27.853Z,2.40
2022-11-02T00:30:25.425Z,1.50
2022-11-02T00:31:25.411Z,2.40
2022-11-02T00:32:25.401Z,2.00
2022-11-02T00:33:25.389Z,2.20
2022-11-02T00:34:25.379Z,2.00
2022-11-02T00:35:25.389Z,2.10
2022-11-02T00:36:25.356Z,2.10
2022-11-02T00:37:25.389Z,1.80
2022-11-02T00:38:25.333Z,1.90
2022-11-02T00:39:25.320Z,1.90
2022-11-02T00:40:25.333Z,1.90
2022-11-02T00:41:25.303Z,1.90
2022-11-02T00:42:25.306Z,2.10
2022-11-02T00:43:25.278Z,2.50
2022-11-02T00:44:25.267Z,1.90
2022-11-02T00:45:25.253Z,2.20
2022-11-02T00:46:25.266Z,2.10
2022-11-02T00:47:25.233Z,2.30
2022-11-02T00:48:25.224Z,1.90
2022-11-02T00:49:25.215Z,2.60
2022-11-02T00:50:25.215Z,2.20
2022-11-02T00:51:25.219Z,2.00
2022-11-02T00:52:25.177Z,2.10
2022-11-02T00:53:25.168Z,2.30
2022-11-02T00:54:27.713Z,2.20
2022-11-02T00:55:25.142Z,2.80
2022-11-02T00:56:25.159Z,2.30
2022-11-02T00:57:25.120Z,1.90
2022-11-02T00:58:25.128Z,1.90
2022-11-02T00:59:25.149Z,1.80
2022-11-02T01:00:25.116Z,1.90
2022-11-02T01:01:25.163Z,2.40
2022-11-02T01:02:25.191Z,2.20
2022-11-02T01:03:25.311Z,1.90
2022-11-02T01:04:25.044Z,2.00
2022-11-02T01:05:25.034Z,2.30
2022-11-02T01:06:25.021Z,2.00
2022-11-02T01:07:25.029Z,2.10
2022-11-02T01:08:25.005Z,1.70
2022-11-02T01:09:24.991Z,2.20
2022-11-02T01:10:24.980Z,2.10
2022-11-02T01:11:24.978Z,2.00
2022-11-02T01:12:24.976Z,1.70
2022-11-02T01:13:25.010Z,1.90
2022-11-02T01:14:24.951Z,1.90
2022-11-02T01:15:24.922Z,2.10
2022-11-02T01:16:24.912Z,1.90
2022-11-02T01:17:24.921Z,2.10
2022-11-02T01:18:24.887Z,2.20
2022-11-02T01:19:24.877Z,2.10
2022-11-02T01:20:24.866Z,2.10
2022-11-02T01:21:24.853Z,1.80
2022-11-02T01:22:24.862Z,2.00
2022-11-02T01:23:24.832Z,2.30
2022-11-02T01:24:24.824Z,1.90
2022-11-02T01:25:24.831Z,2.10
2022-11-02T01:26:24.801Z,2.10
2022-11-02T01:27:24.787Z,1.50
2022-11-02T01:28:24.784Z,1.80
2022-11-02T01:29:24.765Z,1.80
2022-11-02T01:30:24.795Z,2.10
2022-11-02T01:31:24.742Z,2.10
2022-11-02T01:32:24.738Z,2.20
2022-11-02T01:33:24.721Z,2.10
2022-11-02T01:34:24.739Z,2.10
2022-11-02T01:35:24.700Z,1.80
2022-11-02T01:36:24.709Z,1.80
2022-11-02T01:37:24.687Z,2.50
2022-11-02T01:38:24.672Z,2.00
2022-11-02T01:39:24.654Z,1.80
2022-11-02T01:40:24.653Z,2.10
2022-11-02T01:41:24.655Z,2.20
2022-11-02T01:42:24.634Z,2.10
2022-11-02T01:43:24.608Z,1.60
2022-11-02T01:44:24.624Z,2.10
2022-11-02T01:45:24.589Z,1.80
2022-11-02T01:46:24.618Z,2.00
2022-11-02T01:47:24.563Z,2.10
2022-11-02T01:48:24.560Z,1.90
2022-11-02T01:49:24.544Z,1.70
2022-11-02T01:50:24.534Z,2.10
2022-11-02T01:51:24.554Z,1.80
2022-11-02T01:52:24.512Z,2.10
2022-11-02T01:53:24.518Z,2.10
2022-11-02T01:54:24.492Z,2.00
2022-11-02T01:55:24.475Z,1.90
2022-11-02T01:56:24.469Z,2.40
2022-11-02T01:57:24.475Z,2.10
2022-11-02T01:58:24.506Z,2.20
2022-11-02T01:59:24.453Z,2.00
2022-11-02T02:00:24.469Z,1.70
2022-11-02T02:01:24.544Z,2.00
2022-11-02T02:02:24.610Z,1.80
2022-11-02T02:03:24.411Z,2.10
2022-11-02T02:04:24.379Z,1.80
2022-11-02T02:05:24.409Z,2.00
2022-11-02T02:06:24.353Z,1.90
2022-11-02T02:07:24.345Z,1.90
2022-11-02T02:08:24.338Z,1.80
2022-11-02T02:09:24.321Z,2.00
2022-11-02T02:10:24.333Z,1.70
2022-11-02T02:11:24.297Z,2.60
2022-11-02T02:12:24.293Z,2.10
2022-11-02T02:13:24.299Z,1.80
2022-11-02T02:14:24.334Z,2.20
2022-11-02T02:15:24.315Z,2.10
2022-11-02T02:16:24.250Z,1.90
2022-11-02T02:17:24.335Z,1.70
2022-11-02T02:18:24.237Z,2.30
2022-11-02T02:19:24.208Z,2.00
2022-11-02T02:20:24.205Z,2.20
2022-11-02T02:21:24.208Z,2.20
2022-11-02T02:22:24.182Z,2.40
2022-11-02T02:23:24.168Z,2.20
2022-11-02T02:24:24.158Z,2.20
2022-11-02T02:25:24.232Z,2.00
2022-11-02T02:26:24.132Z,2.20
2022-11-02T02:27:24.124Z,1.90
2022-11-02T02:28:24.134Z,1.70
2022-11-02T02:29:24.097Z,2.00
2022-11-02T02:30:24.089Z,2.50
2022-11-02T02:31:24.102Z,2.10
2022-11-02T02:32:24.068Z,2.20
2022-11-02T02:33:24.055Z,2.00
2022-11-02T02:34:24.063Z,1.90
2022-11-02T02:35:24.056Z,2.50
2022-11-02T02:36:24.043Z,2.20
2022-11-02T02:37:24.008Z,2.00
2022-11-02T02:38:23.999Z,1.90
2022-11-02T02:39:23.988Z,1.90
2022-11-02T02:40:23.997Z,1.80
2022-11-02T02:41:24.004Z,1.80
2022-11-02T02:42:23.975Z,1.80
2022-11-02T02:43:23.941Z,2.20
2022-11-02T02:44:23.935Z,1.80
2022-11-02T02:45:23.964Z,1.80
2022-11-02T02:46:23.920Z,2.30
2022-11-02T02:47:23.920Z,2.10
2022-11-02T02:48:23.887Z,1.90
2022-11-02T02:49:23.885Z,2.30
2022-11-02T02:50:23.900Z,2.20
2022-11-02T02:51:23.878Z,2.10
2022-11-02T02:52:23.864Z,1.70
2022-11-02T02:53:23.844Z,2.00
2022-11-02T02:54:23.831Z,2.00
2022-11-02T02:55:23.826Z,1.50
2022-11-02T02:56:23.805Z,2.20
2022-11-02T02:57:23.826Z,2.00
2022-11-02T02:58:23.775Z,2.10
2022-11-02T02:59:23.766Z,2.10
2022-11-02T03:00:23.765Z,1.80
2022-11-02T03:01:23.836Z,2.10
2022-11-02T03:02:23.889Z,2.10
2022-11-02T03:03:23.801Z,1.70
2022-11-02T03:04:23.715Z,2.10
2022-11-02T03:05:23.703Z,1.80
2022-11-02T03:06:23.771Z,2.00
2022-11-02T03:07:23.702Z,2.10
2022-11-02T03:08:23.665Z,1.80
2022-11-02T03:09:23.696Z,1.90
2022-11-02T03:10:23.645Z,2.20
2022-11-02T03:11:23.629Z,2.30
2022-11-02T03:12:23.795Z,2.00
2022-11-02T03:13:23.623Z,1.90
2022-11-02T03:14:23.602Z,2.20
2022-11-02T03:15:23.585Z,2.00
2022-11-02T03:16:23.574Z,1.90
2022-11-02T03:17:23.585Z,2.50
2022-11-02T03:18:23.694Z,1.90
2022-11-02T03:19:23.548Z,2.40
2022-11-02T03:20:23.531Z,2.40
2022-11-02T03:21:23.518Z,1.90
2022-11-02T03:22:23.524Z,2.00
2022-11-02T03:23:23.515Z,2.10
2022-11-02T03:24:23.491Z,2.10
2022-11-02T03:25:23.495Z,2.10
2022-11-02T03:26:23.463Z,2.00
2022-11-02T03:27:23.454Z,1.90
2022-11-02T03:28:23.467Z,2.00
2022-11-02T03:29:23.429Z,1.70
2022-11-02T03:30:23.448Z,1.90
2022-11-02T03:31:23.431Z,2.00
2022-11-02T03:32:23.399Z,2.60
2022-11-02T03:33:23.406Z,2.10
2022-11-02T03:34:23.374Z,2.00
2022-11-02T03:35:23.430Z,2.00
2022-11-02T03:36:23.351Z,2.10
2022-11-02T03:37:23.341Z,1.90
2022-11-02T03:38:23.373Z,2.20
2022-11-02T03:39:23.332Z,2.50
2022-11-02T03:40:23.318Z,1.80
2022-11-02T03:41:23.302Z,1.80
2022-11-02T03:42:23.317Z,2.10
2022-11-02T03:43:23.289Z,2.00
2022-11-02T03:44:23.297Z,2.30
2022-11-02T03:45:23.271Z,2.20
2022-11-02T03:46:23.243Z,1.90
2022-11-02T03:47:23.255Z,2.10
2022-11-02T03:48:23.229Z,2.00
2022-11-02T03:49:23.236Z,2.00
2022-11-02T03:50:23.201Z,2.80
2022-11-02T03:51:23.220Z,1.90
2022-11-02T03:52:23.177Z,1.90
2022-11-02T03:53:23.165Z,2.00
2022-11-02T03:54:23.171Z,2.00
2022-11-02T03:55:23.145Z,2.10
2022-11-02T03:56:23.180Z,1.80
2022-11-02T03:57:23.122Z,2.10
2022-11-02T03:58:23.108Z,1.90
2022-11-02T03:59:23.100Z,2.00
2022-11-02T04:00:23.108Z,2.60
2022-11-02T04:01:23.198Z,1.80
2022-11-02T04:02:23.209Z,1.90
2022-11-02T04:03:23.050Z,1.90
2022-11-02T04:04:23.072Z,1.90
2022-11-02T04:05:23.037Z,1.90
2022-11-02T04:06:23.022Z,1.90
2022-11-02T04:07:23.012Z,2.30
2022-11-02T04:08:23.021Z,2.30
2022-11-02T04:09:22.984Z,2.30
2022-11-02T04:10:23.019Z,1.80
2022-11-02T04:11:22.963Z,1.80
2022-11-02T04:12:23.003Z,2.10
2022-11-02T04:13:22.944Z,1.80
2022-11-02T04:14:22.954Z,2.00
2022-11-02T04:15:23.251Z,1.80
2022-11-02T04:16:27.644Z,2.20
2022-11-02T04:17:23.936Z,2.00
2022-11-02T04:18:22.917Z,2.00
2022-11-02T04:19:22.873Z,2.40
2022-11-02T04:20:22.885Z,2.00
2022-11-02T04:21:22.852Z,1.90
2022-11-02T04:22:22.840Z,2.00
2022-11-02T04:23:22.829Z,1.80
2022-11-02T04:24:22.835Z,1.90
2022-11-02T04:25:22.811Z,1.90
2022-11-02T04:26:22.831Z,2.00
2022-11-02T04:27:22.785Z,1.90
2022-11-02T04:28:22.781Z,1.90
2022-11-02T04:29:22.762Z,1.70
2022-11-02T04:30:22.781Z,1.70
2022-11-02T04:31:22.772Z,1.80
2022-11-02T04:32:22.750Z,2.10
2022-11-02T04:33:22.721Z,1.90
2022-11-02T04:34:22.705Z,1.80
2022-11-02T04:35:22.694Z,2.00
2022-11-02T04:36:22.701Z,2.20
2022-11-02T04:37:22.717Z,2.20
2022-11-02T04:38:22.687Z,2.00
2022-11-02T04:39:22.651Z,1.90
2022-11-02T04:40:22.640Z,2.00
2022-11-02T04:41:22.693Z,1.90
2022-11-02T04:42:22.637Z,2.40
2022-11-02T04:43:22.699Z,2.30
2022-11-02T04:44:26.201Z,2.40
2022-11-02T04:45:23.582Z,2.10
2022-11-02T04:46:22.571Z,2.20
2022-11-02T04:47:22.581Z,1.90
2022-11-02T04:48:22.549Z,2.10
2022-11-02T04:49:22.538Z,2.00
2022-11-02T04:50:22.527Z,2.00
2022-11-02T04:51:22.555Z,2.00
2022-11-02T04:52:22.533Z,2.40
2022-11-02T04:53:22.523Z,1.90
2022-11-02T04:54:22.531Z,2.00
2022-11-02T04:55:22.473Z,2.50
2022-11-02T04:56:22.458Z,2.10
2022-11-02T04:57:22.452Z,2.00
2022-11-02T04:58:22.466Z,2.00
2022-11-02T04:59:22.431Z,2.60
2022-11-02T05:00:22.439Z,1.90
2022-11-02T05:01:22.553Z,2.20
2022-11-02T05:02:22.537Z,2.10
2022-11-02T05:03:22.391Z,2.40
2022-11-02T05:04:22.373Z,2.00
2022-11-02T05:05:22.380Z,2.30
2022-11-02T05:06:22.352Z,1.80
2022-11-02T05:07:22.362Z,2.00
2022-11-02T05:08:22.347Z,2.00
2022-11-02T05:09:22.339Z,2.10
2022-11-02T05:10:22.323Z,2.00
2022-11-02T05:11:22.296Z,2.20
2022-11-02T05:12:26.611Z,2.60
2022-11-02T05:13:23.270Z,2.30
2022-11-02T05:14:22.276Z,2.00
2022-11-02T05:15:22.249Z,2.10
2022-11-02T05:16:22.240Z,2.30
2022-11-02T05:17:22.233Z,2.20
2022-11-02T05:19:22.210Z,2.30
2022-11-02T05:20:22.218Z,2.50
2022-11-02T05:21:22.205Z,2.00
2022-11-02T05:22:22.212Z,2.10
2022-11-02T05:23:22.182Z,2.20
2022-11-02T05:24:22.173Z,2.10
2022-11-02T05:25:22.138Z,1.90
2022-11-02T05:26:22.142Z,2.20
2022-11-02T05:27:22.129Z,2.00
2022-11-02T05:28:22.129Z,2.10
2022-11-02T05:29:22.097Z,2.00
2022-11-02T05:30:22.148Z,2.10
2022-11-02T05:31:22.094Z,2.20
2022-11-02T05:32:22.102Z,2.10
2022-11-02T05:33:25.479Z,2.00
2022-11-02T05:34:23.050Z,2.30
2022-11-02T05:35:22.039Z,2.50
2022-11-02T05:36:22.032Z,2.50
2022-11-02T05:37:22.001Z,2.50
2022-11-02T05:38:22.007Z,2.40
2022-11-02T05:39:22.005Z,2.60
2022-11-02T05:40:21.976Z,2.10
2022-11-02T05:41:21.994Z,2.50
2022-11-02T05:42:21.947Z,2.50
2022-11-02T05:43:21.958Z,2.40
2022-11-02T05:44:21.927Z,2.10
2022-11-02T05:45:23.680Z,2.50
2022-11-02T05:46:21.916Z,1.50
2022-11-02T05:47:21.890Z,2.30
2022-11-02T05:48:21.904Z,2.20
2022-11-02T05:49:21.877Z,2.50
2022-11-02T05:50:21.868Z,2.30
2022-11-02T05:51:21.888Z,2.40
2022-11-02T05:52:22.094Z,1.90
2022-11-02T05:53:21.830Z,2.30
2022-11-02T05:54:21.836Z,1.90
2022-11-02T05:55:21.803Z,2.10
2022-11-02T05:56:25.024Z,2.20
2022-11-02T05:57:21.789Z,2.30
2022-11-02T05:58:21.973Z,2.20
2022-11-02T05:59:21.784Z,2.20
2022-11-02T06:00:21.745Z,2.70
2022-11-02T06:01:21.888Z,2.60
2022-11-02T06:02:23.407Z,2.80
2022-11-02T06:03:21.713Z,2.70
2022-11-02T06:04:21.783Z,2.60
2022-11-02T06:05:21.770Z,2.60
2022-11-02T06:06:21.687Z,2.70
2022-11-02T06:07:21.688Z,2.40
2022-11-02T06:08:21.672Z,2.50
2022-11-02T06:09:21.648Z,2.40
2022-11-02T06:10:21.637Z,2.40
2022-11-02T06:11:21.623Z,2.20
2022-11-02T06:12:21.637Z,2.30
2022-11-02T06:13:21.604Z,2.40
2022-11-02T06:14:21.589Z,2.60
2022-11-02T06:15:21.604Z,3.00
2022-11-02T06:16:23.344Z,2.30
2022-11-02T06:17:21.560Z,2.60
2022-11-02T06:18:21.565Z,2.60
2022-11-02T06:19:21.569Z,2.40
2022-11-02T06:20:21.534Z,2.40
2022-11-02T06:21:21.544Z,2.30
2022-11-02T06:22:21.498Z,2.40
2022-11-02T06:23:21.492Z,2.60
2022-11-02T06:24:21.475Z,2.20
2022-11-02T06:25:21.498Z,3.10
2022-11-02T06:26:21.479Z,2.50
2022-11-02T06:27:21.472Z,2.60
2022-11-02T06:28:21.438Z,2.90
2022-11-02T06:29:21.424Z,2.30
2022-11-02T06:30:21.432Z,2.60
2022-11-02T06:31:21.409Z,2.40
2022-11-02T06:32:21.421Z,2.50
2022-11-02T06:33:21.393Z,2.60
2022-11-02T06:34:21.387Z,2.60
2022-11-02T06:35:21.383Z,2.70
2022-11-02T06:36:21.342Z,2.30
2022-11-02T06:37:21.356Z,2.60
2022-11-02T06:38:21.318Z,2.50
2022-11-02T06:39:21.387Z,2.30
2022-11-02T06:40:25.647Z,2.90
2022-11-02T06:41:21.333Z,2.10
2022-11-02T06:42:21.285Z,2.00
2022-11-02T06:43:21.630Z,2.20
2022-11-02T06:44:21.253Z,2.10
2022-11-02T06:45:21.272Z,2.50
2022-11-02T06:46:21.295Z,2.30
2022-11-02T06:47:21.251Z,2.10
2022-11-02T06:48:21.228Z,2.30
2022-11-02T06:49:21.200Z,2.50
2022-11-02T06:50:21.201Z,2.40
2022-11-02T06:51:21.180Z,2.40
2022-11-02T06:52:21.190Z,2.50
2022-11-02T06:53:21.174Z,2.30
2022-11-02T06:54:21.173Z,2.40
2022-11-02T06:55:21.141Z,2.60
2022-11-02T06:56:21.136Z,2.60
2022-11-02T06:57:21.123Z,2.70
2022-11-02T06:58:21.101Z,2.20
2022-11-02T06:59:21.089Z,2.50
2022-11-02T07:00:23.747Z,2.40
2022-11-02T07:01:21.259Z,2.70
2022-11-02T07:02:21.142Z,2.40
2022-11-02T07:03:21.046Z,2.70
2022-11-02T07:04:21.046Z,2.30
2022-11-02T07:05:21.083Z,3.00
2022-11-02T07:06:21.022Z,2.80
2022-11-02T07:07:21.010Z,2.20
2022-11-02T07:08:21.019Z,2.80
2022-11-02T07:09:20.991Z,2.80
2022-11-02T07:10:20.964Z,2.50
2022-11-02T07:11:20.958Z,2.30
2022-11-02T07:12:23.176Z,2.70
2022-11-02T07:13:20.932Z,2.10
2022-11-02T07:14:20.948Z,2.70
2022-11-02T07:15:20.919Z,2.20
2022-11-02T07:16:20.901Z,2.50
2022-11-02T07:17:20.890Z,2.50
2022-11-02T07:18:20.893Z,2.60
2022-11-02T07:19:20.904Z,2.10
2022-11-02T07:20:20.858Z,2.30
2022-11-02T07:22:20.876Z,2.30
2022-11-02T07:23:20.823Z,3.50
2022-11-02T07:24:20.815Z,2.60
2022-11-02T07:25:20.813Z,2.30
2022-11-02T07:26:20.805Z,2.40
2022-11-02T07:27:20.794Z,2.20
2022-11-02T07:28:20.804Z,2.70
2022-11-02T07:29:20.765Z,2.40
2022-11-02T07:30:20.772Z,2.40
2022-11-02T07:31:20.752Z,2.40
2022-11-02T07:32:20.735Z,2.40
2022-11-02T07:33:20.733Z,2.40
2022-11-02T07:34:20.700Z,2.20
2022-11-02T07:35:20.691Z,2.40
2022-11-02T07:36:20.707Z,2.20
2022-11-02T07:37:20.665Z,2.40
2022-11-02T07:38:20.696Z,2.60
2022-11-02T07:39:20.680Z,2.40
2022-11-02T07:40:20.642Z,2.20
2022-11-02T07:41:20.615Z,2.50
2022-11-02T07:42:20.627Z,2.60
2022-11-02T07:43:20.611Z,2.30
2022-11-02T07:44:20.584Z,2.40
2022-11-02T07:45:20.579Z,2.20
2022-11-02T07:46:20.591Z,2.30
2022-11-02T07:47:20.806Z,2.20
2022-11-02T07:48:20.542Z,2.50
2022-11-02T07:49:21.773Z,3.00
2022-11-02T07:50:20.559Z,2.40
2022-11-02T07:51:20.540Z,2.50
2022-11-02T07:52:20.494Z,2.00
2022-11-02T07:53:20.493Z,2.10
2022-11-02T07:54:20.490Z,2.10
2022-11-02T07:55:20.478Z,2.30
2022-11-02T07:56:20.480Z,2.60
2022-11-02T07:57:20.487Z,2.30
2022-11-02T07:58:20.455Z,2.30
2022-11-02T07:59:20.421Z,2.10
2022-11-02T08:00:20.453Z,2.40
2022-11-02T08:01:20.494Z,2.40
2022-11-02T08:02:20.424Z,2.70
2022-11-02T08:03:20.433Z,2.60
2022-11-02T08:05:20.354Z,2.50
2022-11-02T08:06:20.365Z,2.30
2022-11-02T08:07:20.337Z,2.30
2022-11-02T08:08:20.348Z,2.20
2022-11-02T08:09:20.304Z,2.30
2022-11-02T08:10:20.312Z,2.30
2022-11-02T08:11:20.325Z,2.30
2022-11-02T08:12:20.269Z,2.50
2022-11-02T08:13:20.316Z,2.00
2022-11-02T08:14:20.260Z,2.40
2022-11-02T08:15:20.238Z,2.50
2022-11-02T08:16:20.249Z,2.30
2022-11-02T08:17:20.240Z,2.20
2022-11-02T08:18:20.234Z,2.40
2022-11-02T08:19:20.199Z,2.20
2022-11-02T08:20:20.178Z,2.40
2022-11-02T08:21:20.170Z,2.40
2022-11-02T08:22:20.163Z,2.10
2022-11-02T08:23:20.184Z,2.50
2022-11-02T08:24:20.138Z,2.20
2022-11-02T08:25:20.132Z,2.30
2022-11-02T08:26:20.145Z,2.40
2022-11-02T08:27:20.103Z,2.20
2022-11-02T08:28:20.115Z,2.30
2022-11-02T08:29:20.103Z,2.50
2022-11-02T08:30:20.097Z,2.50
2022-11-02T08:31:20.058Z,2.30
2022-11-02T08:32:20.047Z,2.20
2022-11-02T08:33:20.058Z,2.30
2022-11-02T08:34:20.027Z,2.40
2022-11-02T08:35:20.048Z,2.40
2022-11-02T08:36:20.002Z,2.40
2022-11-02T08:37:19.991Z,2.20
2022-11-02T08:38:19.978Z,2.20
2022-11-02T08:39:20.011Z,2.10
2022-11-02T08:40:19.968Z,2.40
2022-11-02T08:41:19.955Z,2.20
2022-11-02T08:42:19.973Z,2.50
2022-11-02T08:43:19.927Z,2.20
2022-11-02T08:44:19.941Z,1.90
2022-11-02T08:45:19.912Z,2.70
2022-11-02T08:46:19.932Z,2.20
2022-11-02T08:47:19.883Z,2.20
2022-11-02T08:48:19.874Z,2.20
2022-11-02T08:49:19.882Z,2.80
2022-11-02T08:50:19.855Z,2.90
2022-11-02T08:51:19.859Z,2.40
2022-11-02T08:52:19.857Z,2.70
2022-11-02T08:53:19.813Z,2.20
2022-11-02T08:54:19.853Z,2.80
2022-11-02T08:55:19.793Z,2.30
2022-11-02T08:56:19.787Z,2.50
2022-11-02T08:57:19.810Z,2.00
2022-11-02T08:58:19.781Z,2.70
2022-11-02T08:59:19.744Z,2.40
2022-11-02T09:00:19.757Z,2.30
2022-11-02T09:01:19.781Z,2.40
2022-11-02T09:02:19.927Z,2.20
2022-11-02T09:03:26.020Z,2.30
2022-11-02T09:04:20.704Z,2.60
2022-11-02T09:05:19.700Z,2.40
2022-11-02T09:06:19.698Z,2.80
2022-11-02T09:07:19.657Z,2.70
2022-11-02T09:08:19.772Z,2.30
2022-11-02T09:09:19.678Z,2.10
2022-11-02T09:10:19.623Z,2.50
2022-11-02T09:11:19.609Z,2.20
2022-11-02T09:12:19.732Z,2.20
2022-11-02T09:13:19.608Z,2.20
2022-11-02T09:14:19.664Z,2.20
2022-11-02T09:15:19.565Z,2.10
2022-11-02T09:16:19.578Z,2.20
2022-11-02T09:17:19.546Z,2.40
2022-11-02T09:18:19.536Z,2.40
2022-11-02T09:19:19.541Z,2.00
2022-11-02T09:20:19.535Z,2.40
2022-11-02T09:21:19.530Z,2.40
2022-11-02T09:22:19.500Z,2.30
2022-11-02T09:23:19.502Z,2.00
2022-11-02T09:24:19.467Z,2.20
2022-11-02T09:25:19.455Z,2.50
2022-11-02T09:26:19.449Z,2.20
2022-11-02T09:27:19.455Z,2.40
2022-11-02T09:28:19.449Z,2.20
2022-11-02T09:29:19.489Z,2.20
2022-11-02T09:30:19.416Z,2.40
2022-11-02T09:31:19.419Z,2.50
2022-11-02T09:32:19.378Z,2.60
2022-11-02T09:33:19.396Z,2.10
2022-11-02T09:34:19.355Z,2.30
2022-11-02T09:35:19.341Z,2.70
2022-11-02T09:36:19.335Z,2.30
2022-11-02T09:37:19.350Z,2.90
2022-11-02T09:38:19.326Z,2.60
2022-11-02T09:39:19.299Z,2.20
2022-11-02T09:40:19.292Z,2.20
2022-11-02T09:41:19.276Z,2.70
2022-11-02T09:42:19.461Z,2.40
2022-11-02T09:43:19.256Z,2.50
2022-11-02T09:44:19.251Z,2.60
2022-11-02T09:45:19.240Z,2.10
2022-11-02T09:46:19.263Z,3.00
2022-11-02T09:48:26.758Z,2.30
2022-11-02T09:49:20.193Z,2.20
2022-11-02T09:50:19.241Z,2.10
2022-11-02T09:51:19.188Z,2.30
2022-11-02T09:52:19.161Z,2.30
2022-11-02T09:53:19.153Z,2.50
2022-11-02T09:54:19.805Z,2.20
2022-11-02T09:55:19.117Z,2.40
2022-11-02T09:56:19.152Z,2.50
2022-11-02T09:57:19.106Z,2.10
2022-11-02T09:58:19.107Z,2.00
2022-11-02T09:59:19.074Z,2.10
2022-11-02T10:00:19.071Z,2.00
2022-11-02T10:01:19.142Z,1.90
2022-11-02T10:02:19.130Z,2.40
2022-11-02T10:03:19.030Z,2.50
2022-11-02T10:04:19.019Z,2.20
2022-11-02T10:05:19.029Z,2.10
2022-11-02T10:06:19.099Z,2.50
2022-11-02T10:07:18.982Z,2.30
2022-11-02T10:08:18.975Z,2.60
2022-11-02T10:09:18.973Z,2.00
2022-11-02T10:10:18.976Z,2.00
2022-11-02T10:11:18.959Z,2.40
2022-11-02T10:12:18.950Z,1.80
2022-11-02T10:13:18.925Z,2.10
2022-11-02T10:14:18.907Z,2.30
2022-11-02T10:15:18.930Z,2.10
2022-11-02T10:16:18.899Z,2.30
2022-11-02T10:17:18.872Z,2.50
2022-11-02T10:18:18.902Z,1.70
2022-11-02T10:19:18.853Z,2.20
2022-11-02T10:20:18.869Z,2.00
2022-11-02T10:21:18.842Z,1.90
2022-11-02T10:22:18.903Z,2.00
2022-11-02T10:23:18.829Z,2.20
2022-11-02T10:24:18.795Z,1.90
2022-11-02T10:25:18.782Z,2.20
2022-11-02T10:26:18.780Z,2.40
2022-11-02T10:27:18.764Z,2.20
2022-11-02T10:28:18.868Z,2.20
2022-11-02T10:29:18.741Z,2.00
2022-11-02T10:30:18.753Z,2.00
2022-11-02T10:31:18.745Z,2.00
2022-11-02T10:32:18.733Z,1.80
2022-11-02T10:33:18.716Z,1.80
2022-11-02T10:34:18.741Z,1.80
2022-11-02T10:35:33.993Z,1.90
2022-11-02T10:36:19.882Z,1.80
2022-11-02T10:37:18.671Z,1.90
2022-11-02T10:38:18.648Z,2.00
2022-11-02T10:39:18.645Z,2.20
2022-11-02T10:40:18.620Z,2.10
2022-11-02T10:41:18.637Z,1.80
2022-11-02T10:42:18.606Z,1.80
2022-11-02T10:43:18.582Z,1.80
2022-11-02T10:44:18.589Z,1.90
2022-11-02T10:45:18.581Z,2.30
2022-11-02T10:46:18.581Z,2.00
2022-11-02T10:47:18.545Z,1.60
2022-11-02T10:48:18.529Z,1.70
2022-11-02T10:49:18.517Z,1.80
2022-11-02T10:50:18.558Z,2.00
2022-11-02T10:51:18.542Z,1.80
2022-11-02T10:52:18.492Z,1.80
2022-11-02T10:54:23.992Z,1.60
2022-11-02T10:55:19.477Z,2.20
2022-11-02T10:56:18.480Z,1.90
2022-11-02T10:57:18.433Z,1.60
2022-11-02T10:58:18.534Z,1.70
2022-11-02T10:59:18.404Z,1.50
2022-11-02T11:00:18.427Z,1.80
2022-11-02T11:01:18.728Z,1.90
2022-11-02T11:02:18.396Z,1.70
2022-11-02T11:03:18.378Z,1.60
2022-11-02T11:04:18.360Z,1.80
2022-11-02T11:05:18.346Z,1.40
2022-11-02T11:06:18.345Z,1.60
2022-11-02T11:07:18.348Z,1.60
2022-11-02T11:08:18.302Z,2.00
2022-11-02T11:09:18.343Z,1.50
2022-11-02T11:10:18.386Z,1.90
2022-11-02T11:11:18.309Z,1.70
2022-11-02T11:12:18.274Z,1.70
2022-11-02T11:16:20.625Z,1.60
2022-11-02T11:20:19.179Z,1.80
2022-11-02T11:21:18.177Z,1.60
2022-11-02T11:22:18.170Z,1.70
2022-11-02T11:23:18.185Z,1.60
2022-11-02T11:24:18.153Z,1.40
2022-11-02T11:25:20.711Z,1.60
2022-11-02T11:26:18.103Z,1.70
2022-11-02T11:27:18.109Z,1.90
2022-11-02T11:28:18.112Z,1.70
2022-11-02T11:29:18.076Z,1.50
2022-11-02T11:30:33.512Z,1.80
2022-11-02T11:31:19.073Z,1.60
2022-11-02T11:32:18.040Z,1.50
2022-11-02T11:33:18.022Z,1.90
2022-11-02T11:34:18.048Z,1.70
2022-11-02T11:35:18.810Z,1.80
2022-11-02T11:36:18.024Z,1.60
2022-11-02T11:37:18.042Z,1.60
2022-11-02T11:38:17.990Z,1.70
2022-11-02T11:39:17.977Z,1.70
2022-11-02T11:40:17.970Z,1.50
2022-11-02T11:41:17.939Z,1.20
2022-11-02T11:42:17.931Z,1.10
2022-11-02T11:43:17.914Z,1.20
2022-11-02T11:44:17.925Z,1.90
2022-11-02T11:45:17.905Z,1.60
2022-11-02T11:46:17.993Z,1.50
2022-11-02T11:47:17.868Z,1.20
2022-11-02T11:48:17.858Z,1.40
2022-11-02T11:49:17.875Z,1.20
2022-11-02T11:50:20.328Z,1.10
2022-11-02T11:51:22.889Z,1.30
2022-11-02T11:52:18.835Z,0.90
2022-11-02T11:53:17.805Z,1.20
2022-11-02T11:54:17.835Z,1.40
2022-11-02T11:55:17.782Z,1.40
2022-11-02T11:56:17.773Z,1.00
2022-11-02T11:57:17.800Z,1.30
2022-11-02T11:58:17.748Z,1.40
2022-11-02T11:59:17.745Z,1.00
2022-11-02T12:00:17.730Z,1.10
2022-11-02T12:01:17.814Z,1.10
2022-11-02T12:02:17.960Z,1.10
2022-11-02T12:03:17.761Z,1.30
2022-11-02T12:04:17.681Z,1.20
2022-11-02T12:05:17.761Z,1.20
2022-11-02T12:06:17.663Z,1.40
2022-11-02T12:07:17.667Z,1.00
2022-11-02T12:08:17.639Z,1.40
2022-11-02T12:09:17.624Z,1.10
2022-11-02T12:10:17.632Z,1.00
2022-11-02T12:11:19.170Z,1.00
2022-11-02T12:12:17.614Z,1.40
2022-11-02T12:13:17.580Z,1.60
2022-11-02T12:14:17.602Z,0.90
2022-11-02T12:15:17.565Z,1.30
2022-11-02T12:16:17.566Z,1.10
2022-11-02T12:17:17.556Z,1.00
2022-11-02T12:18:17.625Z,0.90
2022-11-02T12:19:17.524Z,1.00
2022-11-02T12:20:17.512Z,1.40
2022-11-02T12:21:17.491Z,1.10
2022-11-02T12:22:17.480Z,1.20
2022-11-02T12:23:17.484Z,1.20
2022-11-02T12:24:17.489Z,1.20
2022-11-02T12:25:17.457Z,1.20
2022-11-02T12:26:17.474Z,1.10
2022-11-02T12:27:17.426Z,1.70
2022-11-02T12:28:17.414Z,1.20
2022-11-02T12:29:17.422Z,1.10
2022-11-02T12:30:17.393Z,1.40
2022-11-02T12:31:17.403Z,1.00
2022-11-02T12:32:17.370Z,1.40
2022-11-02T12:33:17.361Z,1.20
2022-11-02T12:34:17.351Z,1.30
2022-11-02T12:35:32.795Z,1.40
2022-11-02T12:36:18.347Z,1.10
2022-11-02T12:37:38.683Z,1.00
2022-11-02T12:38:18.303Z,1.50
2022-11-02T12:39:17.313Z,1.10
2022-11-02T12:40:17.332Z,1.30
2022-11-02T12:41:17.271Z,0.90
2022-11-02T12:42:17.278Z,1.60
2022-11-02T12:43:17.252Z,1.20
2022-11-02T12:44:17.268Z,1.00
2022-11-02T12:45:17.248Z,1.20
2022-11-02T12:46:17.216Z,1.10
2022-11-02T12:47:17.210Z,1.60
2022-11-02T12:48:17.192Z,1.20
2022-11-02T12:49:17.180Z,1.30
2022-11-02T12:50:17.192Z,1.30
2022-11-02T12:51:17.159Z,1.40
2022-11-02T12:52:17.149Z,0.90
2022-11-02T12:53:17.160Z,1.50
2022-11-02T12:54:17.131Z,1.40
2022-11-02T12:55:17.564Z,1.40
2022-11-02T12:56:17.135Z,1.40
2022-11-02T12:57:17.142Z,1.30
2022-11-02T12:58:17.123Z,1.20
2022-11-02T12:59:17.089Z,1.30
2022-11-02T13:00:17.066Z,1.00
2022-11-02T13:01:17.181Z,1.20
2022-11-02T13:02:17.040Z,1.30
2022-11-02T13:03:17.029Z,1.30
2022-11-02T13:04:17.019Z,1.20
2022-11-02T13:05:17.007Z,1.30
2022-11-02T13:06:17.020Z,1.00
2022-11-02T13:07:16.985Z,1.50
2022-11-02T13:08:16.970Z,1.20
2022-11-02T13:09:16.961Z,1.00
2022-11-02T13:10:16.960Z,1.20
2022-11-02T13:11:17.056Z,1.00
2022-11-02T13:12:16.966Z,1.60
2022-11-02T13:13:16.938Z,1.40
2022-11-02T13:14:16.925Z,1.10
2022-11-02T13:15:16.896Z,1.30
2022-11-02T13:16:16.908Z,1.40
2022-11-02T13:17:16.898Z,1.30
2022-11-02T13:18:16.885Z,1.50
2022-11-02T13:19:16.852Z,1.50
2022-11-02T13:20:16.838Z,1.70
2022-11-02T13:21:16.839Z,1.50
2022-11-02T13:22:16.814Z,1.30
2022-11-02T13:23:16.967Z,1.40
2022-11-02T13:24:16.795Z,1.20
2022-11-02T13:25:16.787Z,1.20
2022-11-02T13:26:16.772Z,1.20
2022-11-02T13:27:35.429Z,1.10
2022-11-02T13:28:17.746Z,1.20
2022-11-02T13:29:17.036Z,1.40